Time;durP1;ratioP1;P1;durP2;ratioP2;P2;SDS_P1;SDS_P2;PMS_P1;PMS_P2;Temp;Humidity;BMP_temperature;BMP_pressure;BME280_temperature;BME280_humidity;BME280_pressure;Samples;Min_cycle;Max_cycle;Signal;HPM_P1;HPM_P2
2022/12/03 00:01:24;;;;;;;;;;;20.00;65.20;;;;;;1522808;76;729;-71
2022/12/03 00:03:27;;;;;;;;;;;19.90;65.00;;;;;;1536668;76;561;-73
2022/12/03 00:05:29;;;;;;;;;;;20.00;65.00;;;;;;1517390;76;721;-71
2022/12/03 00:07:31;;;;;;;;;;;20.00;65.00;;;;;;1509087;76;1193;-72
2022/12/03 00:09:33;;;;;;;;;;;20.00;65.00;;;;;;1524801;76;1476;-72
2022/12/03 00:11:35;;;;;;;;;;;20.00;65.00;;;;;;1525455;76;764;-72
2022/12/03 00:13:37;;;;;;;;;;;20.00;65.00;;;;;;1528407;76;717;-71
2022/12/03 00:15:39;;;;;;;;;;;19.90;64.90;;;;;;1514441;76;1937;-71
2022/12/03 00:17:40;;;;;;;;;;;20.00;64.90;;;;;;1531347;76;1174;-72
2022/12/03 00:19:42;;;;;;;;;;;20.00;65.00;;;;;;1510393;76;702;-72
2022/12/03 00:21:44;;;;;;;;;;;19.90;64.90;;;;;;1514883;76;780;-72
2022/12/03 00:23:46;;;;;;;;;;;20.00;64.90;;;;;;1523610;76;1431;-72
2022/12/03 00:25:48;;;;;;;;;;;20.00;65.00;;;;;;1519048;76;717;-73
2022/12/03 00:27:50;;;;;;;;;;;20.00;64.90;;;;;;1534112;75;1152;-72
2022/12/03 00:29:52;;;;;;;;;;;20.00;65.00;;;;;;1541217;76;738;-71
2022/12/03 00:31:54;;;;;;;;;;;20.00;64.90;;;;;;1534323;76;644;-71
2022/12/03 00:33:55;;;;;;;;;;;20.00;64.80;;;;;;1515065;76;794;-71
2022/12/03 00:35:57;;;;;;;;;;;20.00;64.80;;;;;;1525462;76;1938;-73
2022/12/03 00:37:59;;;;;;;;;;;20.00;64.80;;;;;;1517724;76;1554;-73
2022/12/03 00:40:02;;;;;;;;;;;20.00;64.80;;;;;;1521023;76;748;-75
2022/12/03 00:42:04;;;;;;;;;;;20.00;64.80;;;;;;1511311;76;811;-73
2022/12/03 00:44:06;;;;;;;;;;;20.00;64.80;;;;;;1533837;76;753;-75
2022/12/03 00:46:07;;;;;;;;;;;20.00;64.80;;;;;;1522729;76;745;-73
2022/12/03 00:48:09;;;;;;;;;;;20.00;64.80;;;;;;1526031;76;1135;-73
2022/12/03 00:50:11;;;;;;;;;;;20.00;64.80;;;;;;1519738;76;792;-70
2022/12/03 00:52:13;;;;;;;;;;;19.90;65.00;;;;;;1514370;76;1449;-72
2022/12/03 00:54:15;;;;;;;;;;;20.00;64.90;;;;;;1527851;76;1941;-71
2022/12/03 00:56:17;;;;;;;;;;;20.00;64.90;;;;;;1509582;76;698;-71
2022/12/03 00:58:19;;;;;;;;;;;20.00;64.90;;;;;;1516246;76;1135;-72
2022/12/03 01:00:23;;;;;;;;;;;20.00;64.90;;;;;;1500847;76;717;-71
2022/12/03 01:02:24;;;;;;;;;;;20.00;64.90;;;;;;1523773;76;1662;-71
2022/12/03 01:04:26;;;;;;;;;;;20.00;64.90;;;;;;1534349;76;722;-71
2022/12/03 01:06:28;;;;;;;;;;;20.00;64.90;;;;;;1534343;76;1553;-71
2022/12/03 01:08:30;;;;;;;;;;;20.00;64.90;;;;;;1522746;76;1190;-71
2022/12/03 01:10:32;;;;;;;;;;;20.00;64.90;;;;;;1527695;76;721;-73
2022/12/03 01:12:33;;;;;;;;;;;20.00;64.90;;;;;;1523990;76;794;-71
2022/12/03 01:14:35;;;;;;;;;;;20.00;64.80;;;;;;1519177;76;1937;-71
2022/12/03 01:16:37;;;;;;;;;;;20.00;64.90;;;;;;1512495;76;740;-71
2022/12/03 01:18:39;;;;;;;;;;;20.00;64.80;;;;;;1514420;76;1159;-73
2022/12/03 01:20:41;;;;;;;;;;;20.00;64.80;;;;;;1526446;76;1619;-71
2022/12/03 01:22:43;;;;;;;;;;;20.00;64.80;;;;;;1515065;76;585;-71
2022/12/03 01:24:45;;;;;;;;;;;20.00;64.80;;;;;;1518934;76;725;-72
2022/12/03 01:26:47;;;;;;;;;;;20.00;64.80;;;;;;1534046;76;687;-71
2022/12/03 01:28:49;;;;;;;;;;;20.00;64.80;;;;;;1526682;76;1138;-70
2022/12/03 01:33:10;;;;;;;;;;;20.00;64.70;;;;;;1519589;76;1677;-69
2022/12/03 01:35:12;;;;;;;;;;;20.00;64.70;;;;;;1518558;76;1939;-69
2022/12/03 01:37:14;;;;;;;;;;;20.00;64.70;;;;;;1516260;76;701;-70
2022/12/03 01:39:16;;;;;;;;;;;20.00;64.70;;;;;;1523956;76;1112;-72
2022/12/03 01:41:18;;;;;;;;;;;20.00;64.90;;;;;;1519994;76;734;-72
2022/12/03 01:43:20;;;;;;;;;;;20.00;64.90;;;;;;1508696;76;799;-70
2022/12/03 01:45:22;;;;;;;;;;;20.10;65.30;;;;;;1522647;76;776;-71
2022/12/03 01:47:24;;;;;;;;;;;20.00;65.20;;;;;;1520335;76;1579;-70
2022/12/03 01:49:28;;;;;;;;;;;20.00;65.10;;;;;;1503486;76;1159;-71
2022/12/03 01:51:30;;;;;;;;;;;20.00;65.00;;;;;;1532356;76;1807;-71
2022/12/03 01:53:32;;;;;;;;;;;20.00;65.10;;;;;;1534601;76;792;-71
2022/12/03 01:55:33;;;;;;;;;;;20.00;65.10;;;;;;1521142;76;1944;-70
2022/12/03 01:57:37;;;;;;;;;;;20.00;65.10;;;;;;1530798;76;1190;-71
2022/12/03 01:59:39;;;;;;;;;;;20.00;65.20;;;;;;1543317;74;2975;-74
2022/12/03 02:01:41;;;;;;;;;;;20.00;65.20;;;;;;1531204;76;1580;-74
2022/12/03 02:03:43;;;;;;;;;;;20.00;65.10;;;;;;1511377;76;717;-72
2022/12/03 02:05:45;;;;;;;;;;;20.00;65.10;;;;;;1524971;76;668;-75
2022/12/03 02:07:47;;;;;;;;;;;20.00;65.10;;;;;;1524076;76;590;-72
2022/12/03 02:09:48;;;;;;;;;;;20.00;65.00;;;;;;1509362;76;1196;-75
2022/12/03 02:11:50;;;;;;;;;;;20.00;65.10;;;;;;1508197;78;754;-74
2022/12/03 02:13:54;;;;;;;;;;;20.00;65.00;;;;;;1503846;78;744;-74
2022/12/03 02:15:55;;;;;;;;;;;20.00;65.00;;;;;;1496589;78;1924;-73
2022/12/03 02:17:57;;;;;;;;;;;20.00;65.00;;;;;;1496753;78;686;-73
2022/12/03 02:20:00;;;;;;;;;;;20.00;64.90;;;;;;1489118;78;1158;-74
2022/12/03 02:22:04;;;;;;;;;;;20.00;64.90;;;;;;1518554;78;738;-75
2022/12/03 02:24:07;;;;;;;;;;;20.10;65.10;;;;;;1499150;78;736;-74
2022/12/03 02:26:09;;;;;;;;;;;20.00;64.90;;;;;;1504849;78;1614;-72
2022/12/03 02:28:11;;;;;;;;;;;20.00;64.90;;;;;;1495181;78;1174;-74
2022/12/03 02:30:13;;;;;;;;;;;20.00;65.10;;;;;;1497961;78;1570;-73
2022/12/03 02:32:15;;;;;;;;;;;20.00;65.00;;;;;;1501387;78;732;-72
2022/12/03 02:34:35;;;;;;;;;;;20.00;65.10;;;;;;1500808;78;717;-73
2022/12/03 02:36:37;;;;;;;;;;;20.00;65.00;;;;;;1507679;78;1946;-72
2022/12/03 02:38:39;;;;;;;;;;;20.00;65.00;;;;;;1503536;78;1135;-73
2022/12/03 02:40:41;;;;;;;;;;;20.10;65.10;;;;;;1515780;78;738;-73
2022/12/03 02:42:43;;;;;;;;;;;20.00;65.30;;;;;;1515475;78;715;-72
2022/12/03 02:44:45;;;;;;;;;;;19.90;65.60;;;;;;1499638;78;1538;-73
2022/12/03 02:46:47;;;;;;;;;;;20.00;65.70;;;;;;1497259;78;632;-72
2022/12/03 02:48:49;;;;;;;;;;;20.00;65.90;;;;;;1509609;78;1135;-73
2022/12/03 02:50:52;;;;;;;;;;;19.90;65.70;;;;;;1511501;78;787;-73
2022/12/03 02:52:54;;;;;;;;;;;20.00;65.70;;;;;;1503319;78;704;-74
2022/12/03 02:54:56;;;;;;;;;;;19.90;65.70;;;;;;1510293;77;1932;-71
2022/12/03 02:56:57;;;;;;;;;;;20.00;65.70;;;;;;1512135;78;730;-75
2022/12/03 02:59:00;;;;;;;;;;;19.90;65.60;;;;;;1498871;78;1663;-73
2022/12/03 03:01:03;;;;;;;;;;;20.00;65.50;;;;;;1497230;78;756;-73
2022/12/03 03:03:05;;;;;;;;;;;20.00;65.70;;;;;;1505266;78;758;-73
2022/12/03 03:05:07;;;;;;;;;;;20.00;65.50;;;;;;1512293;78;742;-72
2022/12/03 03:07:09;;;;;;;;;;;19.90;65.40;;;;;;1509493;78;746;-73
2022/12/03 03:09:11;;;;;;;;;;;20.00;65.30;;;;;;1506626;77;1191;-73
2022/12/03 03:11:13;;;;;;;;;;;20.10;65.30;;;;;;1512572;78;776;-74
2022/12/03 03:13:15;;;;;;;;;;;20.00;65.10;;;;;;1500458;78;1571;-73
2022/12/03 03:15:17;;;;;;;;;;;20.00;65.10;;;;;;1489146;78;1941;-72
2022/12/03 03:17:19;;;;;;;;;;;20.00;65.00;;;;;;1504782;78;748;-73
2022/12/03 03:19:23;;;;;;;;;;;20.00;65.00;;;;;;1506504;77;1119;-75
2022/12/03 03:21:25;;;;;;;;;;;20.00;65.10;;;;;;1510026;78;1245;-72
2022/12/03 03:23:27;;;;;;;;;;;20.00;65.10;;;;;;1499408;78;800;-68
2022/12/03 03:25:28;;;;;;;;;;;20.00;65.10;;;;;;1500073;78;1547;-72
2022/12/03 03:27:30;;;;;;;;;;;20.00;65.00;;;;;;1507047;78;745;-74
2022/12/03 03:29:32;;;;;;;;;;;20.00;65.10;;;;;;1505533;78;1141;-72
2022/12/03 03:31:34;;;;;;;;;;;20.00;65.10;;;;;;1504649;78;788;-72
2022/12/03 03:33:37;;;;;;;;;;;20.00;65.10;;;;;;1512078;78;718;-72
2022/12/03 03:35:39;;;;;;;;;;;20.00;65.00;;;;;;1505396;78;1944;-73
2022/12/03 03:37:40;;;;;;;;;;;20.00;65.00;;;;;;1500501;78;741;-71
2022/12/03 03:39:42;;;;;;;;;;;20.00;65.00;;;;;;1505131;78;1538;-73
2022/12/03 03:41:44;;;;;;;;;;;19.90;65.00;;;;;;1499059;78;708;-73
2022/12/03 03:43:46;;;;;;;;;;;19.90;65.10;;;;;;1509044;78;730;-72
2022/12/03 03:45:48;;;;;;;;;;;20.00;65.00;;;;;;1516087;78;717;-73
2022/12/03 03:47:50;;;;;;;;;;;20.00;64.90;;;;;;1509390;78;756;-73
2022/12/03 03:49:52;;;;;;;;;;;20.00;65.00;;;;;;1497851;78;1125;-71
2022/12/03 03:51:54;;;;;;;;;;;20.00;65.00;;;;;;1515384;78;717;-70
2022/12/03 03:53:56;;;;;;;;;;;20.00;65.10;;;;;;1505715;78;1552;-72
2022/12/03 03:55:58;;;;;;;;;;;19.90;65.20;;;;;;1498939;78;1940;-72
2022/12/03 03:58:00;;;;;;;;;;;19.90;65.20;;;;;;1499504;78;798;-72
2022/12/03 04:00:03;;;;;;;;;;;19.90;65.30;;;;;;1498098;78;1138;-72
2022/12/03 04:02:05;;;;;;;;;;;19.90;65.30;;;;;;1496731;78;636;-72
2022/12/03 04:04:09;;;;;;;;;;;19.90;65.40;;;;;;1510635;78;763;-70
2022/12/03 04:06:11;;;;;;;;;;;19.90;65.40;;;;;;1502859;78;1266;-71
2022/12/03 04:08:12;;;;;;;;;;;19.90;65.60;;;;;;1498416;78;1470;-72
2022/12/03 04:14:54;;;;;;;;;;;19.80;65.80;;;;;;1501293;78;1664;-71
2022/12/03 04:16:56;;;;;;;;;;;19.90;65.80;;;;;;1511835;78;1952;-70
2022/12/03 04:18:58;;;;;;;;;;;19.90;66.00;;;;;;1514742;77;1088;-72
2022/12/03 04:23:19;;;;;;;;;;;19.80;66.20;;;;;;1500654;78;1727;-69
2022/12/03 04:30:00;;;;;;;;;;;19.80;66.00;;;;;;1491567;78;1671;-71
2022/12/03 04:36:42;;;;;;;;;;;19.80;66.00;;;;;;1504595;78;1901;-72
2022/12/03 04:38:44;;;;;;;;;;;19.90;65.90;;;;;;1495856;78;1176;-68
2022/12/03 04:41:02;;;;;;;;;;;19.90;65.90;;;;;;1515552;78;575;-68
2022/12/03 04:43:04;;;;;;;;;;;19.90;65.80;;;;;;1500226;78;687;-71
2022/12/03 04:45:07;;;;;;;;;;;19.80;65.70;;;;;;1504337;78;712;-71
2022/12/03 04:47:12;;;;;;;;;;;19.90;65.90;;;;;;1512554;78;739;-73
2022/12/03 04:49:14;;;;;;;;;;;19.80;65.70;;;;;;1514192;77;1134;-71
2022/12/03 04:51:16;;;;;;;;;;;19.80;66.20;;;;;;1497017;78;1612;-72
2022/12/03 04:53:18;;;;;;;;;;;19.90;66.10;;;;;;1496858;78;692;-72
2022/12/03 04:55:20;;;;;;;;;;;19.90;66.00;;;;;;1497058;78;761;-72
2022/12/03 04:57:22;;;;;;;;;;;19.80;65.70;;;;;;1515629;78;1943;-73
2022/12/03 04:59:24;;;;;;;;;;;19.90;65.80;;;;;;1511278;78;1133;-70
2022/12/03 05:01:25;;;;;;;;;;;19.80;65.60;;;;;;1508365;78;801;-73
2022/12/03 05:03:27;;;;;;;;;;;19.90;65.60;;;;;;1498455;78;754;-73
2022/12/03 05:05:29;;;;;;;;;;;19.90;65.50;;;;;;1496794;78;1504;-71
2022/12/03 05:07:31;;;;;;;;;;;19.90;65.40;;;;;;1502792;78;783;-73
2022/12/03 05:09:33;;;;;;;;;;;19.90;65.30;;;;;;1503789;77;1181;-74
2022/12/03 05:11:35;;;;;;;;;;;19.90;65.60;;;;;;1502746;78;826;-73
2022/12/03 05:13:37;;;;;;;;;;;19.90;65.60;;;;;;1509613;78;757;-75
2022/12/03 05:15:39;;;;;;;;;;;19.90;65.60;;;;;;1517341;78;690;-75
2022/12/03 05:17:40;;;;;;;;;;;19.90;65.50;;;;;;1506807;78;752;-74
2022/12/03 05:22:02;;;;;;;;;;;19.90;65.60;;;;;;1498777;78;1638;-74
2022/12/03 05:24:04;;;;;;;;;;;19.90;65.50;;;;;;1512522;78;967;-74
2022/12/03 05:26:07;;;;;;;;;;;19.90;65.50;;;;;;1510534;78;674;-74
2022/12/03 05:28:08;;;;;;;;;;;19.80;65.70;;;;;;1498388;77;1137;-74
2022/12/03 05:30:10;;;;;;;;;;;19.80;65.60;;;;;;1522225;78;741;-73
2022/12/03 05:32:12;;;;;;;;;;;19.90;65.70;;;;;;1516149;78;1573;-73
2022/12/03 05:34:14;;;;;;;;;;;19.80;65.60;;;;;;1494991;78;746;-71
2022/12/03 05:36:16;;;;;;;;;;;19.80;65.40;;;;;;1499690;78;1946;-76
2022/12/03 05:38:18;;;;;;;;;;;19.80;65.50;;;;;;1499876;78;1120;-75
2022/12/03 05:40:20;;;;;;;;;;;19.90;65.40;;;;;;1508705;78;784;-75
2022/12/03 05:44:41;;;;;;;;;;;19.90;65.30;;;;;;1500499;78;1899;-75
2022/12/03 05:46:43;;;;;;;;;;;19.90;65.20;;;;;;1509030;78;1511;-75
2022/12/03 05:48:45;;;;;;;;;;;19.90;65.20;;;;;;1496978;78;1155;-75
2022/12/03 05:50:47;;;;;;;;;;;19.90;65.20;;;;;;1499123;78;725;-75
2022/12/03 05:52:49;;;;;;;;;;;19.90;65.10;;;;;;1517420;78;761;-74
2022/12/03 05:54:51;;;;;;;;;;;19.90;65.10;;;;;;1522553;78;708;-75
2022/12/03 05:56:53;;;;;;;;;;;19.90;65.00;;;;;;1512393;78;1934;-73
2022/12/03 05:58:55;;;;;;;;;;;19.90;65.00;;;;;;1511186;76;1141;-76
2022/12/03 06:00:57;;;;;;;;;;;19.90;65.00;;;;;;1514107;78;1547;-74
2022/12/03 06:02:59;;;;;;;;;;;19.90;65.00;;;;;;1519212;78;731;-75
2022/12/03 06:05:01;;;;;;;;;;;20.00;65.00;;;;;;1515437;78;809;-72
2022/12/03 06:07:02;;;;;;;;;;;19.90;64.90;;;;;;1522318;78;748;-72
2022/12/03 06:09:04;;;;;;;;;;;19.90;64.90;;;;;;1512918;77;1201;-75
2022/12/03 06:11:06;;;;;;;;;;;19.90;64.90;;;;;;1512120;78;692;-72
2022/12/03 06:13:08;;;;;;;;;;;19.90;64.90;;;;;;1513976;78;801;-72
2022/12/03 06:15:10;;;;;;;;;;;19.90;64.90;;;;;;1513658;78;1537;-73
2022/12/03 06:17:12;;;;;;;;;;;19.90;65.00;;;;;;1513982;78;1922;-74
2022/12/03 06:19:14;;;;;;;;;;;19.90;65.20;;;;;;1515424;78;1145;-72
2022/12/03 06:21:16;;;;;;;;;;;19.80;65.50;;;;;;1503538;78;728;-71
2022/12/03 06:23:17;;;;;;;;;;;19.80;65.40;;;;;;1501610;78;776;-73
2022/12/03 06:25:19;;;;;;;;;;;19.90;65.40;;;;;;1518305;78;916;-75
2022/12/03 06:27:21;;;;;;;;;;;19.80;65.30;;;;;;1508873;78;722;-74
2022/12/03 06:29:23;;;;;;;;;;;19.80;65.40;;;;;;1504017;76;1576;-71
2022/12/03 06:31:25;;;;;;;;;;;19.80;65.40;;;;;;1513569;77;726;-75
2022/12/03 06:33:27;;;;;;;;;;;19.80;65.50;;;;;;1518242;78;736;-74
2022/12/03 06:35:29;;;;;;;;;;;19.80;65.40;;;;;;1514080;78;740;-74
2022/12/03 06:37:31;;;;;;;;;;;19.90;65.70;;;;;;1512578;78;1934;-74
2022/12/03 06:39:33;;;;;;;;;;;19.80;65.50;;;;;;1509478;77;1133;-74
2022/12/03 06:41:34;;;;;;;;;;;19.80;65.50;;;;;;1510077;78;737;-71
2022/12/03 06:43:36;;;;;;;;;;;19.80;66.00;;;;;;1507947;78;1586;-76
2022/12/03 06:45:38;;;;;;;;;;;19.80;66.40;;;;;;1511781;78;832;-78
2022/12/03 06:47:40;;;;;;;;;;;19.70;66.80;;;;;;1495896;78;740;-75
2022/12/03 06:49:42;;;;;;;;;;;19.70;66.50;;;;;;1497724;78;1208;-75
2022/12/03 06:51:44;;;;;;;;;;;19.70;66.40;;;;;;1507869;78;693;-75
2022/12/03 06:53:46;;;;;;;;;;;19.70;66.40;;;;;;1502293;78;719;-75
2022/12/03 06:55:48;;;;;;;;;;;19.70;66.30;;;;;;1497544;78;722;-72
2022/12/03 06:57:49;;;;;;;;;;;19.80;66.50;;;;;;1498343;78;1931;-76
2022/12/03 06:59:51;;;;;;;;;;;19.80;66.40;;;;;;1496980;78;1109;-77
2022/12/03 07:01:53;;;;;;;;;;;19.90;66.30;;;;;;1492997;78;800;-75
2022/12/03 07:03:55;;;;;;;;;;;19.90;66.20;;;;;;1501817;78;764;-75
2022/12/03 07:05:57;;;;;;;;;;;19.90;66.00;;;;;;1502193;78;733;-75
2022/12/03 07:07:59;;;;;;;;;;;19.90;66.20;;;;;;1516624;78;741;-73
2022/12/03 07:10:01;;;;;;;;;;;19.90;66.20;;;;;;1511630;76;1177;-73
2022/12/03 07:12:02;;;;;;;;;;;20.00;66.00;;;;;;1497196;78;1533;-77
2022/12/03 07:14:06;;;;;;;;;;;20.00;65.80;;;;;;1512770;78;731;-77
2022/12/03 07:16:08;;;;;;;;;;;20.00;65.90;;;;;;1513574;78;651;-74
2022/12/03 07:18:10;;;;;;;;;;;20.00;66.10;;;;;;1513751;76;1928;-71
2022/12/03 07:20:12;;;;;;;;;;;20.00;65.90;;;;;;1510232;78;755;-73
2022/12/03 07:22:14;;;;;;;;;;;20.00;66.20;;;;;;1515798;78;928;-77
2022/12/03 07:24:16;;;;;;;;;;;20.10;66.20;;;;;;1507002;78;716;-73
2022/12/03 07:26:18;;;;;;;;;;;20.00;66.40;;;;;;1513489;77;1745;-77
2022/12/03 07:28:20;;;;;;;;;;;20.00;66.30;;;;;;1518333;77;1084;-75
2022/12/03 07:30:23;;;;;;;;;;;20.00;66.50;;;;;;1512715;78;739;-76
2022/12/03 07:32:25;;;;;;;;;;;20.00;66.70;;;;;;1517266;77;731;-76
2022/12/03 07:34:27;;;;;;;;;;;20.00;66.40;;;;;;1506151;78;784;-77
2022/12/03 07:36:28;;;;;;;;;;;20.00;66.20;;;;;;1510503;78;799;-76
2022/12/03 07:38:30;;;;;;;;;;;20.00;66.00;;;;;;1508143;78;1931;-77
2022/12/03 07:40:32;;;;;;;;;;;20.00;66.10;;;;;;1510328;78;765;-75
2022/12/03 07:42:34;;;;;;;;;;;20.00;66.00;;;;;;1506218;78;671;-76
2022/12/03 07:44:36;;;;;;;;;;;20.00;66.00;;;;;;1510575;78;661;-76
2022/12/03 07:46:38;;;;;;;;;;;20.00;66.00;;;;;;1512980;78;676;-76
2022/12/03 07:48:40;;;;;;;;;;;20.00;65.90;;;;;;1519259;77;1153;-76
2022/12/03 07:50:42;;;;;;;;;;;20.00;66.10;;;;;;1503742;78;663;-74
2022/12/03 07:52:43;;;;;;;;;;;20.00;66.60;;;;;;1512019;78;1577;-75
2022/12/03 07:54:45;;;;;;;;;;;20.00;66.20;;;;;;1502824;78;722;-74
2022/12/03 07:56:47;;;;;;;;;;;20.00;66.10;;;;;;1498464;78;1952;-73
2022/12/03 07:58:49;;;;;;;;;;;20.00;66.00;;;;;;1512772;74;227105;-65
2022/12/03 08:00:51;;;;;;;;;;;20.00;65.90;;;;;;1545735;76;619;-65
2022/12/03 08:02:53;;;;;;;;;;;20.00;65.70;;;;;;1556359;76;723;-66
2022/12/03 08:04:55;;;;;;;;;;;20.00;65.50;;;;;;1521956;76;599;-67
2022/12/03 08:06:56;;;;;;;;;;;20.10;65.40;;;;;;1529832;76;1519;-69
2022/12/03 08:08:58;;;;;;;;;;;20.10;65.40;;;;;;1530455;76;1194;-65
2022/12/03 08:11:01;;;;;;;;;;;20.00;65.20;;;;;;1543422;76;676;-65
2022/12/03 08:13:04;;;;;;;;;;;20.10;65.10;;;;;;1540529;76;741;-65
2022/12/03 08:15:13;;;;;;;;;;;20.00;65.00;;;;;;1537697;76;601;-67
2022/12/03 08:17:16;;;;;;;;;;;20.00;64.90;;;;;;1531414;76;1946;-67
2022/12/03 08:19:18;;;;;;;;;;;20.00;64.90;;;;;;1532603;76;1169;-66
2022/12/03 08:21:20;;;;;;;;;;;20.00;65.00;;;;;;1542267;76;1468;-68
2022/12/03 08:23:23;;;;;;;;;;;20.10;65.70;;;;;;1517193;76;673;-69
2022/12/03 08:25:26;;;;;;;;;;;20.00;65.40;;;;;;1541217;76;754;-65
2022/12/03 08:27:28;;;;;;;;;;;20.00;65.30;;;;;;1538240;76;801;-65
2022/12/03 08:29:30;;;;;;;;;;;20.00;65.60;;;;;;1536435;76;1112;-65
2022/12/03 08:31:31;;;;;;;;;;;20.00;65.40;;;;;;1520375;77;701;-64
2022/12/03 08:33:34;;;;;;;;;;;20.00;65.50;;;;;;1582446;74;702;-65
2022/12/03 08:35:36;;;;;;;;;;;20.00;65.60;;;;;;1572079;73;1509;-66
2022/12/03 08:37:38;;;;;;;;;;;20.00;65.60;;;;;;1561387;74;1914;-65
2022/12/03 08:39:47;;;;;;;;;;;20.00;65.70;;;;;;1568820;74;1158;-65
2022/12/03 08:44:17;;;;;;;;;;;19.90;65.80;;;;;;1563727;74;1636;-65
2022/12/03 08:46:19;;;;;;;;;;;19.90;65.80;;;;;;1560617;74;625;-65
2022/12/03 08:48:23;;;;;;;;;;;19.90;65.80;;;;;;1564498;74;1152;-65
2022/12/03 08:50:28;;;;;;;;;;;19.90;65.90;;;;;;1563549;74;1710;-66
2022/12/03 08:52:31;;;;;;;;;;;19.90;65.90;;;;;;1562380;74;670;-69
2022/12/03 08:54:33;;;;;;;;;;;20.00;66.20;;;;;;1571927;74;670;-66
2022/12/03 08:56:35;;;;;;;;;;;19.90;67.50;;;;;;1563707;74;723;-68
2022/12/03 08:58:38;;;;;;;;;;;19.90;67.40;;;;;;1569422;73;1919;-66
2022/12/03 09:00:41;;;;;;;;;;;20.00;67.10;;;;;;1562631;74;787;-65
2022/12/03 09:02:48;;;;;;;;;;;20.00;66.80;;;;;;1567292;74;728;-67
2022/12/03 09:04:51;;;;;;;;;;;20.00;66.50;;;;;;1555011;74;1226;-64
2022/12/03 09:06:53;;;;;;;;;;;19.90;66.40;;;;;;1559844;74;613;-64
2022/12/03 09:08:55;;;;;;;;;;;20.00;66.30;;;;;;1563860;74;1144;-64
2022/12/03 09:10:57;;;;;;;;;;;19.90;66.30;;;;;;1533625;75;728;-64
2022/12/03 09:12:59;;;;;;;;;;;19.90;66.20;;;;;;1562238;74;738;-63
2022/12/03 09:15:01;;;;;;;;;;;19.90;67.50;;;;;;1560006;74;768;-63
2022/12/03 09:17:03;;;;;;;;;;;20.00;67.40;;;;;;1564639;74;1459;-63
2022/12/03 09:19:05;;;;;;;;;;;19.90;67.10;;;;;;1568820;74;1939;-64
2022/12/03 09:21:07;;;;;;;;;;;20.00;66.30;;;;;;1574061;74;641;-63
2022/12/03 09:23:09;;;;;;;;;;;20.00;65.70;;;;;;1571415;74;762;-63
2022/12/03 09:25:11;;;;;;;;;;;20.00;65.60;;;;;;1559366;74;745;-64
2022/12/03 09:27:12;;;;;;;;;;;20.00;65.80;;;;;;1559096;74;697;-63
2022/12/03 09:29:14;;;;;;;;;;;19.90;68.10;;;;;;1563627;74;1107;-64
2022/12/03 09:31:16;;;;;;;;;;;19.90;67.60;;;;;;1565217;74;1461;-64
2022/12/03 09:33:18;;;;;;;;;;;19.90;67.30;;;;;;1560554;74;768;-65
2022/12/03 09:35:20;;;;;;;;;;;19.90;66.90;;;;;;1557599;74;672;-66
2022/12/03 09:37:22;;;;;;;;;;;19.90;66.80;;;;;;1563254;74;1930;-65
2022/12/03 09:39:24;;;;;;;;;;;19.90;66.80;;;;;;1564006;74;1132;-65
2022/12/03 09:41:26;;;;;;;;;;;19.90;66.70;;;;;;1567432;74;731;-65
2022/12/03 09:43:28;;;;;;;;;;;19.90;66.70;;;;;;1582015;74;736;-65
2022/12/03 09:45:29;;;;;;;;;;;19.90;66.60;;;;;;1572152;74;1438;-65
2022/12/03 09:47:31;;;;;;;;;;;19.90;66.40;;;;;;1570079;74;761;-65
2022/12/03 09:49:34;;;;;;;;;;;20.00;66.30;;;;;;1566196;74;1125;-65
2022/12/03 09:51:36;;;;;;;;;;;20.00;66.20;;;;;;1574373;74;742;-66
2022/12/03 09:53:38;;;;;;;;;;;20.00;66.10;;;;;;1568383;74;704;-65
2022/12/03 09:55:40;;;;;;;;;;;20.00;66.10;;;;;;1576829;74;724;-65
2022/12/03 09:57:42;;;;;;;;;;;20.00;66.10;;;;;;1570255;74;1963;-65
2022/12/03 09:59:44;;;;;;;;;;;20.00;66.00;;;;;;1557802;74;1374;-65
2022/12/03 10:01:45;;;;;;;;;;;20.00;66.00;;;;;;1563850;74;740;-65
2022/12/03 10:03:49;;;;;;;;;;;19.90;66.00;;;;;;1565468;74;727;-65
2022/12/03 10:05:51;;;;;;;;;;;19.90;66.10;;;;;;1571355;74;755;-66
2022/12/03 10:07:53;;;;;;;;;;;19.90;66.10;;;;;;1564923;74;1208;-66
2022/12/03 10:09:55;;;;;;;;;;;19.90;66.20;;;;;;1541018;75;669;-65
2022/12/03 10:11:57;;;;;;;;;;;19.90;66.30;;;;;;1558074;74;687;-66
2022/12/03 10:13:59;;;;;;;;;;;19.90;66.30;;;;;;1576878;74;1309;-66
2022/12/03 10:16:01;;;;;;;;;;;19.90;66.50;;;;;;1565670;74;733;-66
2022/12/03 10:18:05;;;;;;;;;;;19.90;66.50;;;;;;1540967;75;1908;-66
2022/12/03 10:20:07;;;;;;;;;;;19.90;66.70;;;;;;1550093;74;1565;-66
2022/12/03 10:22:09;;;;;;;;;;;19.90;66.70;;;;;;1561505;74;736;-65
2022/12/03 10:24:18;;;;;;;;;;;19.90;66.80;;;;;;1564768;74;668;-66
2022/12/03 10:26:20;;;;;;;;;;;19.90;66.80;;;;;;1577206;74;709;-66
2022/12/03 10:28:32;;;;;;;;;;;19.90;66.90;;;;;;1574366;74;1459;-66
2022/12/03 10:30:34;;;;;;;;;;;19.80;66.80;;;;;;1522392;75;1040;-66
2022/12/03 10:32:42;;;;;;;;;;;19.90;66.90;;;;;;1574599;74;723;-67
2022/12/03 10:34:44;;;;;;;;;;;19.90;67.00;;;;;;1576615;74;742;-66
2022/12/03 10:36:46;;;;;;;;;;;19.90;67.00;;;;;;1572957;74;678;-67
2022/12/03 10:39:08;;;;;;;;;;;19.90;67.10;;;;;;1555037;74;1943;-66
2022/12/03 10:41:23;;;;;;;;;;;19.90;67.10;;;;;;1563849;74;769;-67
2022/12/03 10:43:25;;;;;;;;;;;19.90;67.10;;;;;;1557906;74;605;-66
2022/12/03 10:45:26;;;;;;;;;;;19.90;67.10;;;;;;1563383;74;597;-67
2022/12/03 10:47:29;;;;;;;;;;;19.90;67.20;;;;;;1542017;75;685;-67
2022/12/03 10:49:31;;;;;;;;;;;19.90;67.30;;;;;;1567427;74;1112;-66
2022/12/03 10:51:32;;;;;;;;;;;19.80;67.10;;;;;;1565327;74;691;-66
2022/12/03 10:53:35;;;;;;;;;;;19.90;67.20;;;;;;1567657;74;562;-67
2022/12/03 10:55:40;;;;;;;;;;;19.90;67.30;;;;;;1539064;75;1386;-67
2022/12/03 10:57:42;;;;;;;;;;;19.90;67.30;;;;;;1569714;74;721;-66
2022/12/03 10:59:44;;;;;;;;;;;19.90;67.30;;;;;;1542164;75;772;-67
2022/12/03 11:01:46;;;;;;;;;;;19.90;67.40;;;;;;1565363;74;803;-67
2022/12/03 11:03:48;;;;;;;;;;;19.90;67.40;;;;;;1558650;74;766;-67
2022/12/03 11:05:50;;;;;;;;;;;19.90;67.40;;;;;;1558658;74;755;-67
2022/12/03 11:07:52;;;;;;;;;;;19.80;67.40;;;;;;1563256;74;1102;-67
2022/12/03 11:09:54;;;;;;;;;;;19.90;67.40;;;;;;1560376;74;1439;-67
2022/12/03 11:11:56;;;;;;;;;;;19.80;67.40;;;;;;1573743;74;709;-67
2022/12/03 11:13:58;;;;;;;;;;;19.90;67.50;;;;;;1566734;74;766;-67
2022/12/03 11:16:00;;;;;;;;;;;19.90;67.50;;;;;;1564346;74;716;-66
2022/12/03 11:18:02;;;;;;;;;;;19.90;67.60;;;;;;1542347;75;1932;-67
2022/12/03 11:20:05;;;;;;;;;;;19.80;67.50;;;;;;1574857;74;660;-67
2022/12/03 11:22:08;;;;;;;;;;;19.80;67.50;;;;;;1570169;74;824;-67
2022/12/03 11:24:15;;;;;;;;;;;19.80;67.60;;;;;;1561169;74;1421;-68
2022/12/03 11:26:28;;;;;;;;;;;19.80;67.60;;;;;;1558640;74;1711;-67
2022/12/03 11:28:33;;;;;;;;;;;19.80;67.60;;;;;;1560381;74;1104;-66
2022/12/03 11:30:39;;;;;;;;;;;19.80;67.70;;;;;;1565058;74;734;-67
2022/12/03 11:32:46;;;;;;;;;;;19.80;67.70;;;;;;1561068;74;1050;-67
2022/12/03 11:34:48;;;;;;;;;;;19.80;67.50;;;;;;1571146;74;693;-62
2022/12/03 11:37:08;;;;;;;;;;;19.90;68.50;;;;;;1569737;74;622;-64
2022/12/03 11:39:10;;;;;;;;;;;19.80;68.50;;;;;;1554740;74;1946;-67
2022/12/03 11:41:16;;;;;;;;;;;19.80;68.10;;;;;;1557959;74;668;-65
2022/12/03 11:43:19;;;;;;;;;;;19.90;63.90;;;;;;1552529;74;614;-64
2022/12/03 11:45:22;;;;;;;;;;;19.80;61.60;;;;;;1564213;74;1597;-65
2022/12/03 11:47:24;;;;;;;;;;;19.70;63.30;;;;;;1571268;74;696;-65
2022/12/03 11:49:33;;;;;;;;;;;19.80;64.10;;;;;;1572292;73;1119;-65
2022/12/03 11:51:35;;;;;;;;;;;19.80;64.90;;;;;;1564921;74;1675;-62
2022/12/03 11:53:37;;;;;;;;;;;19.90;65.40;;;;;;1564063;74;1587;-62
2022/12/03 11:55:42;;;;;;;;;;;19.90;65.60;;;;;;1531749;75;709;-62
2022/12/03 11:57:43;;;;;;;;;;;19.90;65.90;;;;;;1565045;74;1754;-65
2022/12/03 12:00:03;;;;;;;;;;;19.90;66.10;;;;;;1568051;74;1930;-62
2022/12/03 12:02:06;;;;;;;;;;;19.90;66.40;;;;;;1556970;74;1853;-63
2022/12/03 12:04:10;;;;;;;;;;;19.90;67.00;;;;;;1561678;74;2034;-67
2022/12/03 12:06:13;;;;;;;;;;;19.90;67.40;;;;;;1560395;74;1703;-69
2022/12/03 12:08:16;;;;;;;;;;;19.80;67.40;;;;;;1543508;75;1187;-67
2022/12/03 12:10:36;;;;;;;;;;;19.80;67.30;;;;;;1559061;74;1641;-66
2022/12/03 12:12:39;;;;;;;;;;;19.90;67.40;;;;;;1563431;74;768;-70
2022/12/03 12:14:41;;;;;;;;;;;19.80;67.50;;;;;;1536276;75;710;-69
2022/12/03 12:16:50;;;;;;;;;;;19.80;67.60;;;;;;1568135;74;720;-66
2022/12/03 12:18:52;;;;;;;;;;;19.80;67.60;;;;;;1570485;74;1940;-67
2022/12/03 12:20:54;;;;;;;;;;;19.80;67.80;;;;;;1571468;74;1460;-67
2022/12/03 12:22:57;;;;;;;;;;;19.80;67.80;;;;;;1528187;75;673;-67
2022/12/03 12:25:00;;;;;;;;;;;19.90;67.60;;;;;;1576012;74;1123;-66
2022/12/03 12:27:12;;;;;;;;;;;19.90;67.50;;;;;;1569095;74;747;-69
2022/12/03 12:29:14;;;;;;;;;;;19.90;67.60;;;;;;1543555;75;1219;-69
2022/12/03 12:31:16;;;;;;;;;;;19.90;67.60;;;;;;1564198;74;687;-67
2022/12/03 12:33:21;;;;;;;;;;;19.90;67.60;;;;;;1547455;75;678;-69
2022/12/03 12:35:24;;;;;;;;;;;19.90;67.60;;;;;;1573487;74;1570;-71
2022/12/03 12:37:27;;;;;;;;;;;19.90;67.60;;;;;;1565043;74;734;-68